Time;durP1;ratioP1;P1;durP2;ratioP2;P2;SDS_P1;SDS_P2;PMS_P1;PMS_P2;Temp;Humidity;BMP_temperature;BMP_pressure;BME280_temperature;BME280_humidity;BME280_pressure;Samples;Min_cycle;Max_cycle;Signal;HPM_P1;HPM_P2
2024/02/24 00:02:06;;;;;;;3.30;2.08;;;0.80;99.90;;;;;;5022566;28;20069;-33
2024/02/24 00:04:32;;;;;;;2.08;1.98;;;1.00;99.90;;;;;;5020821;28;20462;-36
2024/02/24 00:06:57;;;;;;;1.90;1.80;;;1.00;99.90;;;;;;5010598;28;20029;-33
2024/02/24 00:09:24;;;;;;;1.50;1.40;;;1.10;99.90;;;;;;5027633;28;20024;-33
2024/02/24 00:11:49;;;;;;;2.40;1.90;;;1.00;99.90;;;;;;5018844;28;20747;-33
2024/02/24 00:14:15;;;;;;;2.20;1.50;;;1.10;99.90;;;;;;5029630;28;20033;-32
2024/02/24 00:16:40;;;;;;;2.90;2.70;;;1.00;99.90;;;;;;5022533;28;20269;-33
2024/02/24 00:19:06;;;;;;;2.33;1.92;;;1.10;99.90;;;;;;5028849;28;20041;-32
2024/02/24 00:21:31;;;;;;;1.50;1.40;;;1.10;99.90;;;;;;5022340;28;20483;-31
2024/02/24 00:23:57;;;;;;;2.35;2.03;;;1.10;99.90;;;;;;5025903;28;20203;-34
2024/02/24 00:26:23;;;;;;;2.40;1.70;;;1.00;99.90;;;;;;5025007;28;20022;-32
2024/02/24 00:28:49;;;;;;;2.13;1.92;;;1.10;99.90;;;;;;5028396;28;20112;-31
2024/02/24 00:31:14;;;;;;;2.60;1.52;;;1.10;99.90;;;;;;5022821;28;20088;-32
2024/02/24 00:33:40;;;;;;;2.90;1.58;;;1.10;99.90;;;;;;5020991;28;20594;-33
2024/02/24 00:36:05;;;;;;;1.65;1.55;;;1.10;99.90;;;;;;5023512;28;20479;-32
2024/02/24 00:38:31;;;;;;;1.77;1.65;;;1.00;99.90;;;;;;5028648;28;20482;-33
2024/02/24 00:40:57;;;;;;;4.13;1.50;;;0.90;99.90;;;;;;5025570;28;20064;-36
2024/02/24 00:43:22;;;;;;;2.13;1.73;;;0.90;99.90;;;;;;5020645;28;20029;-32
2024/02/24 00:45:48;;;;;;;2.33;1.60;;;0.90;99.90;;;;;;5029029;28;20479;-37
2024/02/24 00:48:13;;;;;;;2.15;1.70;;;0.90;99.90;;;;;;5026500;28;20037;-34
2024/02/24 00:50:39;;;;;;;2.88;1.75;;;0.70;99.90;;;;;;5023467;28;20057;-33
2024/02/24 00:53:05;;;;;;;1.50;1.40;;;0.70;99.90;;;;;;5018574;28;20068;-32
2024/02/24 00:55:31;;;;;;;2.78;1.75;;;0.60;99.90;;;;;;5032103;28;20087;-32
2024/02/24 00:57:56;;;;;;;1.58;1.40;;;0.30;99.90;;;;;;5025905;28;20030;-35
2024/02/24 01:00:22;;;;;;;3.13;1.73;;;0.40;99.90;;;;;;5023248;28;20116;-34
2024/02/24 01:02:47;;;;;;;2.13;2.03;;;0.40;99.90;;;;;;5022314;28;20026;-32
2024/02/24 01:05:13;;;;;;;2.00;1.90;;;0.50;99.90;;;;;;5023312;28;20029;-33
2024/02/24 01:07:39;;;;;;;1.83;1.48;;;0.50;99.90;;;;;;5025540;28;20021;-38
2024/02/24 01:10:05;;;;;;;4.25;2.28;;;0.60;99.90;;;;;;5026916;28;20075;-33
2024/02/24 01:12:30;;;;;;;1.90;1.80;;;0.50;99.90;;;;;;5023251;28;20095;-33
2024/02/24 01:14:56;;;;;;;3.22;2.17;;;0.50;99.90;;;;;;5022375;28;20029;-34
2024/02/24 01:17:22;;;;;;;3.17;1.70;;;0.50;99.90;;;;;;5021225;28;20056;-35
2024/02/24 01:19:47;;;;;;;3.50;2.17;;;0.50;99.90;;;;;;5023431;28;20083;-32
2024/02/24 01:22:13;;;;;;;2.15;1.95;;;0.50;99.90;;;;;;5024236;28;20032;-36
2024/02/24 01:24:39;;;;;;;2.72;1.85;;;0.50;99.90;;;;;;5027652;28;20041;-40
2024/02/24 01:27:05;;;;;;;4.53;2.25;;;0.50;99.90;;;;;;5027513;28;20029;-32
2024/02/24 01:29:31;;;;;;;2.92;2.67;;;0.50;99.90;;;;;;5024871;28;20033;-33
2024/02/24 01:32:00;;;;;;;6.15;4.88;;;0.50;99.90;;;;;;5026044;28;20072;-32
2024/02/24 01:34:29;;;;;;;5.63;4.43;;;0.50;99.90;;;;;;5018704;28;20780;-33
2024/02/24 01:36:55;;;;;;;3.08;2.88;;;0.50;99.90;;;;;;5026841;28;20038;-32
2024/02/24 01:39:20;;;;;;;1.67;1.58;;;0.50;99.90;;;;;;5022406;28;20042;-33
2024/02/24 01:41:46;;;;;;;2.05;1.83;;;0.40;99.90;;;;;;5022593;28;20025;-32
2024/02/24 01:44:18;;;;;;;3.10;2.55;;;0.40;99.90;;;;;;5023561;28;20034;-36
2024/02/24 01:46:47;;;;;;;1.85;1.70;;;0.50;99.90;;;;;;5023452;28;20034;-32
2024/02/24 01:49:13;;;;;;;2.10;1.90;;;0.50;99.90;;;;;;5030409;28;20046;-34
2024/02/24 01:51:39;;;;;;;1.52;1.35;;;0.30;99.90;;;;;;5027670;28;20029;-31
2024/02/24 01:54:06;;;;;;;2.45;1.55;;;-0.10;99.90;;;;;;5029465;28;20395;-31
2024/02/24 01:56:32;;;;;;;2.03;1.45;;;-0.10;99.90;;;;;;5028183;28;20036;-34
2024/02/24 01:58:58;;;;;;;1.48;1.33;;;-0.20;99.90;;;;;;5028538;28;20788;-32
2024/02/24 02:01:24;;;;;;;1.55;1.40;;;-0.60;99.90;;;;;;5028837;28;20049;-34
2024/02/24 02:03:52;;;;;;;1.33;1.23;;;-0.50;99.90;;;;;;5031261;28;20466;-31
2024/02/24 02:06:18;;;;;;;1.65;1.55;;;-0.30;99.90;;;;;;5029714;28;20025;-33
2024/02/24 02:08:44;;;;;;;1.95;1.40;;;-0.20;99.90;;;;;;5025379;28;20033;-31
2024/02/24 02:11:10;;;;;;;1.17;1.10;;;-0.20;99.90;;;;;;5026584;28;20029;-35
2024/02/24 02:13:36;;;;;;;3.53;3.22;;;-0.40;99.90;;;;;;5028479;28;20091;-31
2024/02/24 02:16:01;;;;;;;1.25;1.23;;;-0.60;99.90;;;;;;5024502;28;20301;-31
2024/02/24 02:18:27;;;;;;;2.28;1.65;;;-0.70;99.90;;;;;;5030955;28;20222;-31
2024/02/24 02:20:54;;;;;;;1.77;1.65;;;-0.60;99.90;;;;;;5024790;28;20128;-31
2024/02/24 02:23:19;;;;;;;2.25;2.10;;;-0.60;99.90;;;;;;5025500;28;20116;-31
2024/02/24 02:25:45;;;;;;;1.95;1.70;;;-0.50;99.90;;;;;;5029034;28;20602;-33
2024/02/24 02:28:11;;;;;;;1.77;1.67;;;-0.50;99.90;;;;;;5026229;28;20502;-32
2024/02/24 02:30:36;;;;;;;2.10;2.00;;;-0.40;99.90;;;;;;5029977;28;20356;-32
2024/02/24 02:33:04;;;;;;;1.75;1.75;;;-0.30;99.90;;;;;;5033122;28;20028;-35
2024/02/24 02:35:31;;;;;;;2.08;1.98;;;-0.30;99.90;;;;;;5023229;28;20502;-31
2024/02/24 02:37:56;;;;;;;1.67;1.38;;;-0.30;99.90;;;;;;5026200;28;20029;-33
2024/02/24 02:40:22;;;;;;;1.88;1.75;;;-0.40;99.90;;;;;;5020057;28;20036;-31
2024/02/24 02:42:48;;;;;;;1.20;1.20;;;-0.40;99.90;;;;;;5028087;28;20087;-33
2024/02/24 02:45:14;;;;;;;8.35;2.33;;;-0.40;99.90;;;;;;5023884;28;20537;-33
2024/02/24 02:47:39;;;;;;;1.80;1.70;;;-0.40;99.90;;;;;;5023367;28;20029;-35
2024/02/24 02:50:07;;;;;;;1.77;1.67;;;-0.40;99.90;;;;;;5020696;28;20033;-32
2024/02/24 02:52:33;;;;;;;2.13;1.70;;;-0.30;99.90;;;;;;5027802;28;20018;-42
2024/02/24 02:54:58;;;;;;;1.65;1.60;;;-0.40;99.90;;;;;;5024462;28;20035;-40
2024/02/24 02:57:24;;;;;;;1.88;1.73;;;-0.40;99.90;;;;;;5026535;28;20037;-39
2024/02/24 02:59:49;;;;;;;2.40;2.20;;;-0.30;99.90;;;;;;5026357;28;20116;-41
2024/02/24 03:02:15;;;;;;;2.08;1.85;;;-0.40;99.90;;;;;;5025918;28;20032;-40
2024/02/24 03:04:41;;;;;;;1.23;1.23;;;-0.30;99.90;;;;;;5028983;28;20024;-41
2024/02/24 03:07:06;;;;;;;2.58;1.90;;;-0.40;99.90;;;;;;5026575;28;20391;-41
2024/02/24 03:09:32;;;;;;;2.25;2.15;;;-0.40;99.90;;;;;;5023353;28;20040;-42
2024/02/24 03:11:57;;;;;;;3.00;2.80;;;-0.40;99.90;;;;;;5024278;28;20398;-40
2024/02/24 03:14:23;;;;;;;2.30;2.10;;;-0.40;99.90;;;;;;5029874;28;20535;-39
2024/02/24 03:16:49;;;;;;;1.42;1.40;;;-0.40;99.90;;;;;;5026752;28;20025;-39
2024/02/24 03:19:15;;;;;;;1.75;1.65;;;-0.40;99.90;;;;;;5026326;28;20052;-41
2024/02/24 03:21:40;;;;;;;2.67;2.10;;;-0.50;99.90;;;;;;5025086;28;20484;-38
2024/02/24 03:24:06;;;;;;;1.33;1.23;;;-0.50;99.90;;;;;;5026181;28;20080;-37
2024/02/24 03:26:32;;;;;;;2.25;1.70;;;-0.90;99.90;;;;;;5024777;28;20022;-40
2024/02/24 03:28:57;;;;;;;3.55;1.85;;;-0.90;99.90;;;;;;5026779;28;20024;-40
2024/02/24 03:31:24;;;;;;;2.42;1.77;;;-0.90;99.90;;;;;;5020452;28;20084;-43
2024/02/24 03:33:50;;;;;;;2.30;2.10;;;-0.80;99.90;;;;;;5027241;28;20519;-42
2024/02/24 03:36:17;;;;;;;3.60;2.92;;;-0.80;99.90;;;;;;5028926;28;20041;-35
2024/02/24 03:38:43;;;;;;;7.57;2.67;;;-0.70;99.90;;;;;;5025055;28;20026;-43
2024/02/24 03:41:09;;;;;;;4.18;3.45;;;-0.60;99.90;;;;;;5028187;28;20036;-42
2024/02/24 03:43:35;;;;;;;4.88;4.13;;;-0.60;99.90;;;;;;5023508;28;20506;-41
2024/02/24 03:46:05;;;;;;;3.42;3.13;;;-0.60;99.90;;;;;;5028075;28;20076;-42
2024/02/24 03:48:31;;;;;;;5.38;3.00;;;-0.60;99.90;;;;;;5029407;28;20037;-41
2024/02/24 03:50:57;;;;;;;4.95;2.67;;;-0.70;99.90;;;;;;5023801;28;20040;-31
2024/02/24 03:53:23;;;;;;;3.17;2.88;;;-0.70;99.90;;;;;;5018135;28;20473;-33
2024/02/24 03:55:51;;;;;;;3.15;2.80;;;-0.60;99.90;;;;;;5026997;28;20036;-35
2024/02/24 03:58:18;;;;;;;;;;;-0.70;99.90;;;;;;5020080;28;20029;-35
2024/02/24 04:00:43;;;;;;;2.53;2.20;;;-0.80;99.90;;;;;;5028938;28;19948;-32
2024/02/24 04:03:09;;;;;;;2.78;2.58;;;-0.80;99.90;;;;;;5023033;28;20098;-31
2024/02/24 04:05:34;;;;;;;2.03;1.92;;;-0.80;99.90;;;;;;5028850;28;20486;-31
2024/02/24 04:08:00;;;;;;;1.85;1.75;;;-0.80;99.90;;;;;;5026427;28;20084;-31
2024/02/24 04:10:25;;;;;;;5.82;1.50;;;-0.70;99.90;;;;;;5021149;28;20403;-31
2024/02/24 04:12:51;;;;;;;1.23;1.23;;;-0.70;99.90;;;;;;5030049;28;20045;-34
2024/02/24 04:15:21;;;;;;;1.70;1.60;;;-0.80;99.90;;;;;;5022450;28;20517;-34
2024/02/24 04:17:48;;;;;;;1.30;1.20;;;-0.80;99.90;;;;;;5024590;28;20038;-31
2024/02/24 04:20:14;;;;;;;1.73;1.63;;;-0.70;99.90;;;;;;5027988;28;20048;-31
2024/02/24 04:22:40;;;;;;;1.73;1.63;;;-0.80;99.90;;;;;;5014873;28;20014;-34
2024/02/24 04:25:07;;;;;;;1.48;1.38;;;-0.80;99.90;;;;;;5025443;28;20102;-35
2024/02/24 04:27:33;;;;;;;1.90;1.50;;;-0.80;99.90;;;;;;5026468;28;20021;-31
2024/02/24 04:29:59;;;;;;;1.23;1.23;;;-0.80;99.90;;;;;;5022710;28;20032;-31
2024/02/24 04:32:24;;;;;;;5.43;4.07;;;-0.80;99.90;;;;;;5021047;28;20518;-32
2024/02/24 04:34:50;;;;;;;5.15;3.13;;;-0.80;99.90;;;;;;5027230;28;20025;-31
2024/02/24 04:37:16;;;;;;;2.13;1.92;;;-0.70;99.90;;;;;;5024202;28;20079;-33
2024/02/24 04:39:41;;;;;;;1.77;1.50;;;-0.70;99.90;;;;;;5025897;28;20025;-31
2024/02/24 04:42:07;;;;;;;1.50;1.40;;;-0.70;99.90;;;;;;5018572;28;20025;-31
2024/02/24 04:44:33;;;;;;;1.27;1.27;;;-0.70;99.90;;;;;;5026300;28;20049;-31
2024/02/24 04:46:59;;;;;;;4.47;1.25;;;-0.70;99.90;;;;;;5019654;28;20029;-34
2024/02/24 04:49:24;;;;;;;1.17;1.17;;;-0.70;99.90;;;;;;5022119;28;20108;-34
2024/02/24 04:51:50;;;;;;;1.35;1.25;;;-0.70;99.90;;;;;;5029198;28;20598;-34
2024/02/24 04:54:16;;;;;;;1.00;1.00;;;-0.70;99.90;;;;;;5028044;28;20386;-35
2024/02/24 04:56:42;;;;;;;1.73;1.20;;;-0.60;99.90;;;;;;5022817;28;20040;-35
2024/02/24 04:59:08;;;;;;;2.30;1.67;;;-0.60;99.90;;;;;;5026580;28;20026;-31
2024/02/24 05:01:35;;;;;;;2.13;2.00;;;-0.70;99.90;;;;;;5023257;28;20046;-40
2024/02/24 05:04:01;;;;;;;2.15;1.40;;;-0.60;99.90;;;;;;5021827;28;20037;-39
2024/02/24 05:06:28;;;;;;;1.92;1.83;;;-0.70;99.90;;;;;;5020711;28;20022;-39
2024/02/24 05:08:54;;;;;;;1.88;1.77;;;-0.70;99.90;;;;;;5025588;28;20037;-40
2024/02/24 05:11:19;;;;;;;1.42;1.33;;;-0.70;99.90;;;;;;5034976;28;20025;-38
2024/02/24 05:13:45;;;;;;;1.65;1.55;;;-0.70;99.90;;;;;;5024873;28;20127;-42
2024/02/24 05:16:10;;;;;;;1.92;1.83;;;-0.70;99.90;;;;;;5017994;28;20033;-40
2024/02/24 05:18:36;;;;;;;1.48;1.38;;;-0.80;99.90;;;;;;5022553;28;20399;-41
2024/02/24 05:21:02;;;;;;;1.85;1.75;;;-0.80;99.90;;;;;;5021082;28;20029;-40
2024/02/24 05:23:28;;;;;;;1.92;1.83;;;-0.80;99.90;;;;;;5019365;28;20034;-40
2024/02/24 05:25:53;;;;;;;1.98;1.77;;;-0.90;99.90;;;;;;5019611;28;20604;-42
2024/02/24 05:28:19;;;;;;;1.50;1.40;;;-0.90;99.90;;;;;;5029681;28;20029;-37
2024/02/24 05:30:45;;;;;;;2.00;1.75;;;-0.90;99.90;;;;;;5021962;28;20036;-40
2024/02/24 05:33:11;;;;;;;3.70;1.60;;;-0.90;99.90;;;;;;5022535;28;20100;-39
2024/02/24 05:35:36;;;;;;;1.75;1.65;;;-0.90;99.90;;;;;;5021207;28;20137;-41
2024/02/24 05:38:02;;;;;;;1.10;1.10;;;-0.90;99.90;;;;;;5024375;28;20505;-37
2024/02/24 05:40:28;;;;;;;1.80;1.70;;;-0.90;99.90;;;;;;5031312;28;20387;-42
2024/02/24 05:42:53;;;;;;;4.13;2.30;;;-1.20;99.90;;;;;;5003811;28;20022;-42
2024/02/24 05:45:19;;;;;;;3.08;2.10;;;-1.20;99.90;;;;;;5025768;28;20021;-37
2024/02/24 05:47:45;;;;;;;2.47;2.28;;;-1.10;99.90;;;;;;5022693;28;20016;-39
2024/02/24 05:50:10;;;;;;;4.25;2.45;;;-1.10;99.90;;;;;;5022793;28;20143;-37
2024/02/24 05:52:36;;;;;;;4.95;2.88;;;-1.00;99.90;;;;;;5025586;28;20114;-40
2024/02/24 05:55:07;;;;;;;1.95;1.75;;;-1.10;99.90;;;;;;5027530;28;20040;-39
2024/02/24 05:57:33;;;;;;;2.90;2.70;;;-1.00;99.90;;;;;;5019919;28;20435;-41
2024/02/24 05:59:59;;;;;;;2.83;2.67;;;-1.00;99.90;;;;;;5029345;28;20049;-39
2024/02/24 06:02:25;;;;;;;1.35;1.27;;;-1.10;99.90;;;;;;5022133;28;20037;-37
2024/02/24 06:04:50;;;;;;;1.80;1.70;;;-1.00;99.90;;;;;;5025095;28;20025;-37
2024/02/24 06:07:16;;;;;;;1.58;1.48;;;-1.00;99.90;;;;;;5024657;28;20505;-39
2024/02/24 06:09:42;;;;;;;1.25;1.10;;;-1.00;99.90;;;;;;5022977;28;20033;-38
2024/02/24 06:12:08;;;;;;;1.50;1.50;;;-1.00;99.90;;;;;;5019904;28;20340;-39
2024/02/24 06:14:34;;;;;;;1.08;1.05;;;-1.30;99.90;;;;;;5020258;28;20042;-41
2024/02/24 06:17:00;;;;;;;1.15;1.13;;;-1.50;99.90;;;;;;5023981;28;20026;-41
2024/02/24 06:19:26;;;;;;;1.38;1.30;;;-1.80;99.90;;;;;;5025715;28;20045;-38
2024/02/24 06:21:51;;;;;;;2.08;1.70;;;-1.70;99.90;;;;;;5022015;28;20018;-31
2024/02/24 06:24:17;;;;;;;1.85;1.75;;;-1.60;99.90;;;;;;5021077;28;20045;-37
2024/02/24 06:26:42;;;;;;;4.30;2.78;;;-1.50;99.90;;;;;;5006704;28;20033;-31
2024/02/24 06:29:08;;;;;;;3.53;2.20;;;-1.40;99.90;;;;;;5000211;28;20033;-31
2024/02/24 06:31:34;;;;;;;2.38;2.17;;;-1.30;99.90;;;;;;5021639;28;20021;-31
2024/02/24 06:33:59;;;;;;;2.25;2.05;;;-1.30;99.90;;;;;;5022282;28;20026;-31
2024/02/24 06:36:25;;;;;;;2.25;2.15;;;-1.20;99.90;;;;;;5026036;28;20052;-32
2024/02/24 06:38:51;;;;;;;1.70;1.58;;;-1.20;99.90;;;;;;5016281;28;20033;-31
2024/02/24 06:41:23;;;;;;;1.80;1.70;;;-1.10;99.90;;;;;;5025247;28;20029;-37
2024/02/24 06:43:49;;;;;;;1.77;1.58;;;-1.20;99.90;;;;;;5026725;28;20037;-31
2024/02/24 06:46:15;;;;;;;3.28;1.67;;;-1.20;99.90;;;;;;5029164;28;20033;-31
2024/02/24 06:48:41;;;;;;;1.88;1.77;;;-1.20;99.90;;;;;;5004466;28;20014;-34
2024/02/24 06:51:06;;;;;;;2.03;1.88;;;-1.10;99.90;;;;;;5022642;28;20076;-32
2024/02/24 06:53:32;;;;;;;2.47;1.90;;;-1.00;99.90;;;;;;5019450;28;20041;-32
2024/02/24 06:56:04;;;;;;;2.33;1.60;;;-1.00;99.90;;;;;;5013936;28;20017;-32
2024/02/24 06:58:30;;;;;;;4.50;2.00;;;-0.90;99.90;;;;;;5023929;28;20728;-30
2024/02/24 07:00:55;;;;;;;1.90;1.67;;;-0.90;99.90;;;;;;5028156;28;20041;-31
2024/02/24 07:03:21;;;;;;;3.53;2.13;;;-0.90;99.90;;;;;;5026488;28;20029;-34
2024/02/24 07:05:47;;;;;;;3.97;2.50;;;-0.90;99.90;;;;;;5014657;28;20048;-32
2024/02/24 07:08:12;;;;;;;2.40;1.80;;;-0.80;99.90;;;;;;5028442;28;20065;-31
2024/02/24 07:10:38;;;;;;;3.47;2.40;;;-0.70;99.90;;;;;;5027872;28;20108;-31
2024/02/24 07:13:03;;;;;;;7.13;3.72;;;-0.70;99.90;;;;;;5027990;28;20025;-30
2024/02/24 07:15:29;;;;;;;2.78;2.30;;;-0.60;99.90;;;;;;5025934;28;20071;-32
2024/02/24 07:17:54;;;;;;;1.90;1.80;;;-0.50;99.90;;;;;;5007296;28;20034;-31
2024/02/24 07:20:20;;;;;;;2.05;1.90;;;-0.40;99.90;;;;;;5012542;28;20030;-37
2024/02/24 07:22:48;;;;;;;1.70;1.60;;;-0.30;99.90;;;;;;5029572;28;20033;-33
2024/02/24 07:25:15;;;;;;;2.05;1.95;;;-0.20;99.90;;;;;;5033687;28;20061;-31
2024/02/24 07:27:41;;;;;;;1.50;1.40;;;-0.10;99.90;;;;;;5033502;28;20793;-33
2024/02/24 07:30:07;;;;;;;1.40;1.35;;;0.00;99.90;;;;;;5025639;28;20095;-30
2024/02/24 07:32:33;;;;;;;0.88;0.88;;;0.20;99.90;;;;;;5021767;28;20041;-30
2024/02/24 07:35:00;;;;;;;1.38;1.38;;;0.30;99.90;;;;;;5025070;28;20045;-32
2024/02/24 07:37:25;;;;;;;1.05;1.05;;;0.40;99.90;;;;;;5023862;28;20440;-32
2024/02/24 07:39:51;;;;;;;0.98;0.98;;;0.70;99.90;;;;;;5023779;28;20040;-33
2024/02/24 07:42:17;;;;;;;1.80;1.67;;;0.80;99.90;;;;;;5030233;28;20040;-37
2024/02/24 07:44:42;;;;;;;2.65;1.52;;;0.90;99.90;;;;;;5024207;28;20063;-38
2024/02/24 07:47:08;;;;;;;4.57;1.52;;;1.00;99.90;;;;;;5021886;28;20052;-39
2024/02/24 07:49:34;;;;;;;1.38;1.38;;;1.10;99.90;;;;;;5025489;28;20088;-39
2024/02/24 07:51:59;;;;;;;3.33;2.17;;;1.20;99.90;;;;;;5026375;28;20526;-33
2024/02/24 07:54:25;;;;;;;1.45;1.35;;;1.20;99.90;;;;;;5023814;28;20038;-34
2024/02/24 07:56:51;;;;;;;2.28;1.23;;;1.20;99.90;;;;;;5019416;28;20460;-33
2024/02/24 07:59:17;;;;;;;2.55;1.70;;;1.30;99.90;;;;;;5029857;28;20029;-37
2024/02/24 08:01:43;;;;;;;1.60;1.50;;;1.40;99.90;;;;;;5018830;28;20443;-32
2024/02/24 08:04:08;;;;;;;2.28;1.70;;;1.50;99.90;;;;;;4984005;28;20029;-33
2024/02/24 08:06:34;;;;;;;2.13;1.38;;;1.50;99.90;;;;;;5006139;28;20029;-32
2024/02/24 08:09:00;;;;;;;1.73;1.38;;;1.50;99.90;;;;;;5010484;28;20109;-33
2024/02/24 08:11:29;;;;;;;1.77;1.67;;;1.60;99.90;;;;;;5019454;28;20039;-33
2024/02/24 08:13:55;;;;;;;2.28;2.08;;;1.70;99.90;;;;;;5025778;28;20030;-34
2024/02/24 08:16:22;;;;;;;9.10;2.97;;;1.80;99.90;;;;;;5024442;28;20037;-35
2024/02/24 08:18:49;;;;;;;4.03;2.15;;;1.90;99.90;;;;;;5030246;28;20057;-33
2024/02/24 08:21:15;;;;;;;4.28;2.35;;;2.00;99.90;;;;;;5006938;28;20037;-34
2024/02/24 08:23:41;;;;;;;4.07;3.10;;;2.10;99.90;;;;;;5025707;28;20041;-34
2024/02/24 08:26:06;;;;;;;4.22;2.42;;;2.20;99.90;;;;;;5021235;28;20128;-33
2024/02/24 08:28:32;;;;;;;2.58;2.38;;;2.20;99.90;;;;;;5021181;28;20025;-35
2024/02/24 08:30:59;;;;;;;4.75;2.15;;;2.30;99.90;;;;;;5022176;28;20042;-33
2024/02/24 08:33:25;;;;;;;3.55;2.35;;;2.50;99.90;;;;;;5022592;28;20057;-34
2024/02/24 08:35:51;;;;;;;4.18;1.88;;;2.70;99.90;;;;;;5025195;28;20090;-34
2024/02/24 08:38:19;;;;;;;4.80;2.95;;;2.80;99.90;;;;;;5022994;28;20030;-34
2024/02/24 08:40:45;;;;;;;;;;;3.00;99.90;;;;;;5020856;28;20722;-38
2024/02/24 08:43:11;;;;;;;3.28;2.67;;;3.20;99.90;;;;;;5023263;28;19917;-39
2024/02/24 08:45:37;;;;;;;7.15;4.75;;;3.30;99.90;;;;;;5027366;28;20093;-38
2024/02/24 08:48:03;;;;;;;6.75;3.88;;;3.30;99.90;;;;;;5022056;28;20108;-39
2024/02/24 08:50:28;;;;;;;6.88;3.67;;;3.40;99.90;;;;;;5017797;28;20044;-40
2024/02/24 08:52:54;;;;;;;7.55;4.00;;;3.50;99.90;;;;;;5020832;28;20036;-39
2024/02/24 08:55:19;;;;;;;4.13;2.20;;;3.70;99.90;;;;;;5015518;28;20033;-35
2024/02/24 08:57:45;;;;;;;4.57;2.22;;;3.90;99.90;;;;;;5022150;28;20188;-40
2024/02/24 09:00:12;;;;;;;1.65;1.30;;;4.10;99.90;;;;;;5018652;28;20025;-37
2024/02/24 09:02:38;;;;;;;1.00;1.00;;;4.50;99.90;;;;;;5016797;28;20427;-33
2024/02/24 09:05:04;;;;;;;2.10;1.45;;;4.80;99.90;;;;;;5024341;28;20561;-35
2024/02/24 09:07:30;;;;;;;1.42;1.33;;;5.10;99.90;;;;;;5017150;28;20025;-32
2024/02/24 09:09:56;;;;;;;0.90;0.90;;;5.40;99.90;;;;;;5016273;28;20068;-35
2024/02/24 09:12:22;;;;;;;1.00;1.00;;;5.40;99.90;;;;;;5016154;28;20068;-32
2024/02/24 09:14:47;;;;;;;0.77;0.77;;;5.40;99.90;;;;;;5021673;28;20493;-33
2024/02/24 09:17:13;;;;;;;1.00;1.00;;;5.50;99.90;;;;;;5021695;28;20049;-34
2024/02/24 09:19:42;;;;;;;0.70;0.70;;;5.50;99.90;;;;;;5023518;28;20033;-33
2024/02/24 09:22:12;;;;;;;0.70;0.70;;;5.60;99.90;;;;;;5019419;28;20438;-32
2024/02/24 09:24:38;;;;;;;0.80;0.68;;;5.70;99.90;;;;;;5022744;28;20072;-32
2024/02/24 09:27:03;;;;;;;0.90;0.80;;;5.80;99.90;;;;;;5018142;28;20064;-36
2024/02/24 09:29:29;;;;;;;1.00;1.00;;;5.90;99.90;;;;;;5019301;28;20025;-35
2024/02/24 09:31:55;;;;;;;0.82;0.82;;;6.00;99.90;;;;;;5019900;28;20045;-33
2024/02/24 09:34:21;;;;;;;0.80;0.80;;;5.90;99.90;;;;;;5022841;28;20050;-38
2024/02/24 09:36:47;;;;;;;0.82;0.75;;;5.90;99.90;;;;;;5022749;28;20029;-35
2024/02/24 09:39:13;;;;;;;1.35;0.98;;;5.90;99.90;;;;;;5026196;28;20033;-32
2024/02/24 09:41:39;;;;;;;1.10;1.10;;;5.90;99.90;;;;;;5018323;28;20057;-32
2024/02/24 09:44:05;;;;;;;0.85;0.85;;;6.10;99.90;;;;;;5016241;28;22140;-32
2024/02/24 09:46:34;;;;;;;0.60;0.60;;;6.00;99.90;;;;;;5019121;28;20045;-32
2024/02/24 09:49:01;;;;;;;1.15;0.80;;;6.00;99.90;;;;;;5023669;28;20470;-32
2024/02/24 09:51:27;;;;;;;0.80;0.80;;;6.10;99.90;;;;;;5019457;28;20109;-34
2024/02/24 09:53:53;;;;;;;0.90;0.90;;;6.00;99.90;;;;;;5020839;28;20029;-34
2024/02/24 09:56:22;;;;;;;0.50;0.50;;;6.00;99.90;;;;;;4996642;28;20029;-32
2024/02/24 09:58:50;;;;;;;0.82;0.82;;;6.10;99.90;;;;;;5001109;28;20038;-32
2024/02/24 10:01:17;;;;;;;0.82;0.82;;;6.30;99.90;;;;;;5000471;28;20427;-33
2024/02/24 10:03:45;;;;;;;0.93;0.93;;;6.40;99.90;;;;;;5019817;28;20037;-34
2024/02/24 10:06:11;;;;;;;1.15;1.05;;;6.30;99.90;;;;;;5021034;28;20044;-33
2024/02/24 10:08:40;;;;;;;0.77;0.77;;;6.40;99.90;;;;;;5021478;28;20037;-34
2024/02/24 10:11:06;;;;;;;0.40;0.40;;;6.30;99.90;;;;;;5016050;28;20034;-40
2024/02/24 10:13:32;;;;;;;1.17;1.05;;;6.30;99.90;;;;;;5019557;28;20761;-42
2024/02/24 10:16:02;;;;;;;0.73;0.68;;;6.30;99.90;;;;;;5022761;28;20120;-41
2024/02/24 10:18:30;;;;;;;0.77;0.77;;;6.30;99.90;;;;;;5021358;28;20175;-37
2024/02/24 10:20:56;;;;;;;0.80;0.80;;;6.40;99.90;;;;;;5010050;28;20514;-37
2024/02/24 10:23:21;;;;;;;0.98;0.98;;;6.40;99.90;;;;;;5014035;28;20029;-36
2024/02/24 10:25:47;;;;;;;0.98;0.98;;;6.40;99.90;;;;;;5021559;28;20468;-40
2024/02/24 10:28:13;;;;;;;3.53;1.30;;;6.40;99.90;;;;;;5011682;28;20068;-41
2024/02/24 10:30:39;;;;;;;1.42;1.17;;;6.50;99.90;;;;;;5017321;28;20033;-41
2024/02/24 10:33:08;;;;;;;1.30;1.20;;;6.50;99.90;;;;;;5025062;28;20047;-40
2024/02/24 10:35:34;;;;;;;3.95;1.40;;;6.50;99.90;;;;;;5029590;28;20123;-41
2024/02/24 10:38:00;;;;;;;3.55;1.80;;;6.50;99.90;;;;;;5021444;28;20113;-32
2024/02/24 10:40:26;;;;;;;1.77;1.67;;;6.50;99.90;;;;;;5006489;28;20029;-40
2024/02/24 10:42:53;;;;;;;2.33;1.50;;;6.50;99.90;;;;;;5023823;28;20542;-40
2024/02/24 10:45:19;;;;;;;2.22;1.63;;;6.50;99.90;;;;;;5031951;28;20057;-41
2024/02/24 10:47:45;;;;;;;1.10;1.10;;;6.70;99.90;;;;;;5024406;28;20030;-41
2024/02/24 10:50:11;;;;;;;3.22;1.88;;;6.80;99.90;;;;;;5002249;28;20136;-39
2024/02/24 10:52:37;;;;;;;3.83;1.73;;;6.80;99.90;;;;;;5021744;28;20037;-39
2024/02/24 10:55:05;;;;;;;4.20;1.95;;;6.80;99.90;;;;;;5027411;28;20040;-40
2024/02/24 10:57:35;;;;;;;3.33;2.00;;;6.90;99.90;;;;;;5022549;28;20463;-40
2024/02/24 11:00:34;;;;;;;1.65;1.55;;;7.10;99.90;;;;;;5027503;28;20459;-41
2024/02/24 11:03:01;;;;;;;3.65;1.67;;;7.30;99.90;;;;;;5023791;28;20120;-34
2024/02/24 11:05:27;;;;;;;2.88;1.80;;;7.20;99.20;;;;;;5024505;28;20554;-37
2024/02/24 11:07:53;;;;;;;2.00;1.60;;;7.10;97.50;;;;;;5025280;28;20029;-39
2024/02/24 11:10:20;;;;;;;3.65;2.00;;;7.00;99.90;;;;;;5026014;28;20032;-37
2024/02/24 11:12:50;;;;;;;1.73;1.50;;;7.00;99.70;;;;;;5022967;28;20037;-39
2024/02/24 11:15:23;;;;;;;1.83;1.40;;;7.00;99.80;;;;;;5021330;28;20544;-39
2024/02/24 11:17:55;;;;;;;4.18;1.55;;;7.10;99.90;;;;;;5018918;28;20034;-36
2024/02/24 11:20:39;;;;;;;1.92;1.35;;;7.40;99.90;;;;;;5030271;28;20478;-35
2024/02/24 11:23:22;;;;;;;0.70;0.70;;;7.40;97.40;;;;;;5024341;28;20030;-33
2024/02/24 11:25:49;;;;;;;0.73;0.73;;;7.50;95.50;;;;;;5028204;28;20057;-32
2024/02/24 11:28:21;;;;;;;2.65;0.95;;;7.50;98.90;;;;;;5021280;28;20382;-32
2024/02/24 11:30:50;;;;;;;0.93;0.93;;;7.60;98.20;;;;;;5025774;28;20021;-32
2024/02/24 11:33:23;;;;;;;0.98;0.82;;;7.60;95.40;;;;;;5019838;28;20044;-33
2024/02/24 11:35:54;;;;;;;0.85;0.85;;;7.70;99.80;;;;;;5031581;28;20029;-35
2024/02/24 11:38:21;;;;;;;0.50;0.50;;;7.60;96.70;;;;;;5004582;28;20395;-37
2024/02/24 11:40:48;;;;;;;0.82;0.82;;;7.50;91.90;;;;;;5013525;28;20071;-32
2024/02/24 11:43:15;;;;;;;1.70;1.10;;;7.50;96.60;;;;;;5022675;28;20558;-32
2024/02/24 11:45:49;;;;;;;0.70;0.70;;;7.60;94.00;;;;;;5022381;28;20690;-34
2024/02/24 11:48:16;;;;;;;0.70;0.70;;;7.70;93.60;;;;;;5022212;28;20530;-32
2024/02/24 11:50:42;;;;;;;0.50;0.50;;;7.80;94.10;;;;;;5020643;28;20368;-32
2024/02/24 11:53:09;;;;;;;0.75;0.75;;;7.80;93.10;;;;;;5021288;28;20029;-33
2024/02/24 11:55:35;;;;;;;0.90;0.90;;;7.90;94.90;;;;;;5022268;28;20068;-33
2024/02/24 11:58:03;;;;;;;1.02;0.73;;;8.00;92.00;;;;;;5019660;28;20727;-33
2024/02/24 12:00:30;;;;;;;;;;;8.10;94.70;;;;;;5016972;28;20068;-35
2024/02/24 12:02:55;;;;;;;1.98;1.13;;;8.00;90.30;;;;;;5023222;28;19909;-33
2024/02/24 12:05:21;;;;;;;0.45;0.45;;;8.00;91.40;;;;;;5022021;28;20044;-35
2024/02/24 12:07:47;;;;;;;0.40;0.40;;;8.10;91.10;;;;;;5027222;28;20665;-31
2024/02/24 12:10:13;;;;;;;0.75;0.75;;;8.20;90.40;;;;;;5026884;28;20029;-33
2024/02/24 12:12:40;;;;;;;0.55;0.55;;;8.10;88.30;;;;;;5023469;28;20033;-33
2024/02/24 12:15:06;;;;;;;1.05;0.80;;;8.10;85.30;;;;;;5024948;28;20493;-32
2024/02/24 12:17:40;;;;;;;0.77;0.77;;;8.10;92.00;;;;;;5022033;28;20034;-41
2024/02/24 12:20:08;;;;;;;0.90;0.90;;;8.30;92.70;;;;;;5003705;28;20080;-42
2024/02/24 12:22:34;;;;;;;2.03;1.00;;;8.30;92.90;;;;;;5020891;28;20638;-42
2024/02/24 12:25:14;;;;;;;0.57;0.57;;;8.40;84.40;;;;;;5024158;28;20037;-41
2024/02/24 12:27:40;;;;;;;1.20;0.82;;;8.30;87.60;;;;;;5025287;28;20506;-41
2024/02/24 12:30:07;;;;;;;0.80;0.80;;;8.20;80.60;;;;;;5030577;28;20056;-41
2024/02/24 12:32:33;;;;;;;0.75;0.70;;;8.20;87.50;;;;;;5021307;28;20551;-31
2024/02/24 12:35:07;;;;;;;0.60;0.60;;;8.30;82.60;;;;;;5019243;28;20041;-32
2024/02/24 12:37:33;;;;;;;0.90;0.90;;;8.40;91.70;;;;;;5018475;28;20073;-34
2024/02/24 12:40:00;;;;;;;0.57;0.57;;;8.50;89.50;;;;;;5017498;28;20121;-34
2024/02/24 12:42:25;;;;;;;0.95;0.88;;;8.60;86.00;;;;;;5018956;28;20022;-31
2024/02/24 12:44:54;;;;;;;1.45;1.00;;;8.50;84.50;;;;;;5020641;28;20031;-31
2024/02/24 12:47:20;;;;;;;1.50;0.75;;;8.50;86.20;;;;;;5022869;28;20631;-34
2024/02/24 12:49:46;;;;;;;0.82;0.70;;;8.50;88.10;;;;;;5031672;28;20033;-31